Time;durP1;ratioP1;P1;durP2;ratioP2;P2;SDS_P1;SDS_P2;PMS_P1;PMS_P2;Temp;Humidity;BMP_temperature;BMP_pressure;BME280_temperature;BME280_humidity;BME280_pressure;Samples;Min_cycle;Max_cycle;Signal;HPM_P1;HPM_P2
2022/03/24 00:00:09;;;;;;;42.92;27.20;;;;;;;;;;4972854;28;20051;-63
2022/03/24 00:02:35;;;;;;;43.80;27.95;;;;;;;;;;4972315;28;20050;-63
2022/03/24 00:05:01;;;;;;;44.67;27.85;;;;;;;;;;4972192;28;20054;-63
2022/03/24 00:07:28;;;;;;;46.00;28.10;;;;;;;;;;4972701;28;20057;-63
2022/03/24 00:09:54;;;;;;;45.53;28.40;;;;;;;;;;4972760;28;20042;-63
2022/03/24 00:12:22;;;;;;;46.97;28.10;;;;;;;;;;4972224;28;20081;-63
2022/03/24 00:14:48;;;;;;;44.38;27.17;;;;;;;;;;4972773;28;20057;-64
2022/03/24 00:17:14;;;;;;;45.35;27.45;;;;;;;;;;4972681;28;20043;-64
2022/03/24 00:19:40;;;;;;;46.13;27.38;;;;;;;;;;4972017;28;20069;-64
2022/03/24 00:22:06;;;;;;;47.63;27.08;;;;;;;;;;4972885;28;20043;-64
2022/03/24 00:24:32;;;;;;;43.25;26.70;;;;;;;;;;4972409;28;20046;-64
2022/03/24 00:26:58;;;;;;;45.22;27.92;;;;;;;;;;4986784;28;20053;-64
2022/03/24 00:29:24;;;;;;;48.08;27.08;;;;;;;;;;4991648;28;20660;-64
2022/03/24 00:31:51;;;;;;;46.60;28.67;;;;;;;;;;4991954;28;20499;-64
2022/03/24 00:34:18;;;;;;;45.35;28.25;;;;;;;;;;4991312;28;20039;-64
2022/03/24 00:36:44;;;;;;;48.92;28.88;;;;;;;;;;4991940;28;20046;-64
2022/03/24 00:39:10;;;;;;;49.55;28.05;;;;;;;;;;4992177;28;20049;-64
2022/03/24 00:41:37;;;;;;;48.45;29.13;;;;;;;;;;4991148;28;20050;-64
2022/03/24 00:44:03;;;;;;;43.42;27.67;;;;;;;;;;4991628;28;20058;-64
2022/03/24 00:46:31;;;;;;;46.17;27.67;;;;;;;;;;4991763;28;20451;-64
2022/03/24 00:48:57;;;;;;;43.35;28.73;;;;;;;;;;4991187;28;20050;-64
2022/03/24 00:51:23;;;;;;;45.40;29.08;;;;;;;;;;4991837;28;20053;-64
2022/03/24 00:53:49;;;;;;;43.83;28.38;;;;;;;;;;4991885;28;20042;-64
2022/03/24 00:56:16;;;;;;;53.92;29.67;;;;;;;;;;4991080;28;20058;-64
2022/03/24 00:58:42;;;;;;;52.38;29.65;;;;;;;;;;4991981;28;20048;-64
2022/03/24 01:01:12;;;;;;;47.88;28.75;;;;;;;;;;4991819;28;20415;-64
2022/03/24 01:03:38;;;;;;;47.88;30.20;;;;;;;;;;4991097;28;20432;-64
2022/03/24 01:06:06;;;;;;;46.95;30.17;;;;;;;;;;4991635;28;20503;-64
2022/03/24 01:08:32;;;;;;;45.92;29.02;;;;;;;;;;4991570;28;20051;-64
2022/03/24 01:10:58;;;;;;;49.88;29.50;;;;;;;;;;4990753;28;20042;-64
2022/03/24 01:13:25;;;;;;;48.70;29.83;;;;;;;;;;4991642;28;20077;-63
2022/03/24 01:15:52;;;;;;;49.15;29.52;;;;;;;;;;4994019;28;20134;-63
2022/03/24 01:18:19;;;;;;;48.30;28.55;;;;;;;;;;4994615;28;20092;-64
2022/03/24 01:20:46;;;;;;;47.15;29.17;;;;;;;;;;4995240;28;20046;-64
2022/03/24 01:23:12;;;;;;;44.80;28.17;;;;;;;;;;4977824;28;20068;-64
2022/03/24 01:25:41;;;;;;;52.97;29.92;;;;;;;;;;4990278;28;20047;-63
2022/03/24 01:28:08;;;;;;;49.85;30.33;;;;;;;;;;4974224;28;20101;-63
2022/03/24 01:30:34;;;;;;;51.35;30.52;;;;;;;;;;4975116;28;20123;-63
2022/03/24 01:33:00;;;;;;;51.25;31.02;;;;;;;;;;4974886;28;20039;-63
2022/03/24 01:35:26;;;;;;;49.78;30.35;;;;;;;;;;4975513;28;20053;-63
2022/03/24 01:37:52;;;;;;;47.47;30.80;;;;;;;;;;4975347;28;20046;-63
2022/03/24 01:40:18;;;;;;;59.03;31.73;;;;;;;;;;4974735;28;20038;-63
2022/03/24 01:42:46;;;;;;;53.85;31.33;;;;;;;;;;4974827;28;20382;-63
2022/03/24 01:45:13;;;;;;;54.13;32.22;;;;;;;;;;4975142;28;20057;-64
2022/03/24 01:47:39;;;;;;;50.95;31.65;;;;;;;;;;4974496;28;20125;-64
2022/03/24 01:50:06;;;;;;;54.55;30.55;;;;;;;;;;4975019;28;20409;-64
2022/03/24 01:52:32;;;;;;;51.58;30.05;;;;;;;;;;4975103;28;20401;-63
2022/03/24 01:54:59;;;;;;;49.65;30.17;;;;;;;;;;4974482;28;20045;-65
2022/03/24 01:57:26;;;;;;;54.33;29.77;;;;;;;;;;4974843;28;20126;-63
2022/03/24 01:59:53;;;;;;;52.28;30.25;;;;;;;;;;4974985;28;20043;-63
2022/03/24 02:02:20;;;;;;;53.95;32.45;;;;;;;;;;4974320;28;20043;-63
2022/03/24 02:04:47;;;;;;;54.13;31.70;;;;;;;;;;4974921;28;20047;-64
2022/03/24 02:07:13;;;;;;;56.90;31.88;;;;;;;;;;4974751;28;20106;-63
2022/03/24 02:09:39;;;;;;;55.25;31.10;;;;;;;;;;4974067;28;20555;-63
2022/03/24 02:12:09;;;;;;;53.10;30.13;;;;;;;;;;4974781;28;20046;-63
2022/03/24 02:14:35;;;;;;;57.10;32.10;;;;;;;;;;4974450;28;20118;-63
2022/03/24 02:17:02;;;;;;;59.53;31.90;;;;;;;;;;4973803;28;20070;-63
2022/03/24 02:19:28;;;;;;;55.33;32.40;;;;;;;;;;4974567;28;20050;-63
2022/03/24 02:21:55;;;;;;;61.85;32.00;;;;;;;;;;4974522;28;20081;-63
2022/03/24 02:24:23;;;;;;;53.88;30.65;;;;;;;;;;4973787;28;20465;-63
2022/03/24 02:26:49;;;;;;;54.53;31.20;;;;;;;;;;4987214;28;20074;-63
2022/03/24 02:29:18;;;;;;;59.22;31.27;;;;;;;;;;4993729;28;20121;-63
2022/03/24 02:31:46;;;;;;;55.55;31.95;;;;;;;;;;4993077;28;20126;-63
2022/03/24 02:36:58;;;;;;;52.80;29.08;;;;;;;;;;4993547;28;20053;-63
2022/03/24 02:39:25;;;;;;;51.55;31.35;;;;;;;;;;4992916;28;20049;-63
2022/03/24 02:41:52;;;;;;;54.50;29.33;;;;;;;;;;4993575;28;20089;-63
2022/03/24 02:44:19;;;;;;;53.35;30.23;;;;;;;;;;4993622;28;20069;-63
2022/03/24 02:46:49;;;;;;;56.05;30.10;;;;;;;;;;4992788;28;20450;-63
2022/03/24 02:49:18;;;;;;;54.30;31.00;;;;;;;;;;4993297;28;20047;-63
2022/03/24 02:51:45;;;;;;;49.22;29.10;;;;;;;;;;4993348;28;20065;-63
2022/03/24 02:54:11;;;;;;;54.60;30.10;;;;;;;;;;4992745;28;20034;-63
2022/03/24 02:56:38;;;;;;;55.08;30.50;;;;;;;;;;4991662;28;20064;-63
2022/03/24 02:59:05;;;;;;;51.20;30.58;;;;;;;;;;4993288;28;20492;-63
2022/03/24 03:01:31;;;;;;;49.85;29.48;;;;;;;;;;4992652;28;20424;-63
2022/03/24 03:03:57;;;;;;;56.72;30.85;;;;;;;;;;4993193;28;20050;-63
2022/03/24 03:06:23;;;;;;;52.05;30.00;;;;;;;;;;4993058;28;20082;-63
2022/03/24 03:08:50;;;;;;;49.55;29.00;;;;;;;;;;4991000;28;20042;-63
2022/03/24 03:11:17;;;;;;;48.53;28.63;;;;;;;;;;4992761;28;20057;-63
2022/03/24 03:13:45;;;;;;;52.58;29.58;;;;;;;;;;4993051;28;20451;-63
2022/03/24 03:16:12;;;;;;;49.50;29.23;;;;;;;;;;4992299;28;20061;-63
2022/03/24 03:18:41;;;;;;;51.65;28.70;;;;;;;;;;4992944;28;20046;-63
2022/03/24 03:21:11;;;;;;;49.05;28.75;;;;;;;;;;4993038;28;20046;-63
2022/03/24 03:23:38;;;;;;;49.33;29.13;;;;;;;;;;4991880;28;20049;-63
2022/03/24 03:26:07;;;;;;;54.00;29.83;;;;;;;;;;4985084;28;20042;-63
2022/03/24 03:28:34;;;;;;;51.15;28.45;;;;;;;;;;4973232;28;20035;-63
2022/03/24 03:31:00;;;;;;;55.35;31.15;;;;;;;;;;4972676;28;20369;-63
2022/03/24 03:33:26;;;;;;;50.80;30.73;;;;;;;;;;4973515;28;20058;-63
2022/03/24 03:35:52;;;;;;;55.95;29.23;;;;;;;;;;4972953;28;20050;-63
2022/03/24 03:38:19;;;;;;;49.75;30.77;;;;;;;;;;4971775;28;20039;-63
2022/03/24 03:40:45;;;;;;;54.50;29.40;;;;;;;;;;4973233;28;20053;-63
2022/03/24 03:43:12;;;;;;;49.45;29.63;;;;;;;;;;4972761;28;20058;-63
2022/03/24 03:45:38;;;;;;;51.72;29.20;;;;;;;;;;4972239;28;20058;-63
2022/03/24 03:48:05;;;;;;;54.05;30.83;;;;;;;;;;4973135;28;20043;-63
2022/03/24 03:50:31;;;;;;;57.60;32.53;;;;;;;;;;4971466;28;20061;-63
2022/03/24 03:52:57;;;;;;;62.47;33.22;;;;;;;;;;4972163;28;20047;-63
2022/03/24 03:55:24;;;;;;;56.95;30.77;;;;;;;;;;4972872;28;20543;-63
2022/03/24 03:57:50;;;;;;;53.50;31.27;;;;;;;;;;4972971;28;20042;-63
2022/03/24 04:03:04;;;;;;;64.90;33.83;;;;;;;;;;4972983;28;20077;-63
2022/03/24 04:05:33;;;;;;;59.22;31.95;;;;;;;;;;4972767;28;20162;-63
2022/03/24 04:08:00;;;;;;;59.67;31.05;;;;;;;;;;4971869;28;20055;-63
2022/03/24 04:10:27;;;;;;;60.50;33.35;;;;;;;;;;4972648;28;20058;-63
2022/03/24 04:12:57;;;;;;;61.03;33.30;;;;;;;;;;4972763;28;20047;-63
2022/03/24 04:15:23;;;;;;;65.53;34.22;;;;;;;;;;4972052;28;20066;-63
2022/03/24 04:17:50;;;;;;;57.88;31.42;;;;;;;;;;4972469;28;20054;-63
2022/03/24 04:20:20;;;;;;;58.47;31.75;;;;;;;;;;4972830;28;20050;-63
2022/03/24 04:22:50;;;;;;;66.55;33.97;;;;;;;;;;4970552;28;20444;-63
2022/03/24 04:25:17;;;;;;;63.60;33.10;;;;;;;;;;4973846;28;20053;-63
2022/03/24 04:27:43;;;;;;;58.88;30.85;;;;;;;;;;4991691;28;20050;-63
2022/03/24 04:30:12;;;;;;;56.83;31.65;;;;;;;;;;4990092;28;20046;-64
2022/03/24 04:32:38;;;;;;;56.67;32.22;;;;;;;;;;4992223;28;20043;-63
2022/03/24 04:35:05;;;;;;;64.88;33.70;;;;;;;;;;4991990;28;20067;-63
2022/03/24 04:37:31;;;;;;;58.92;33.17;;;;;;;;;;4991110;28;20046;-64
2022/03/24 04:39:57;;;;;;;68.43;34.70;;;;;;;;;;4991808;28;20126;-63
2022/03/24 04:42:23;;;;;;;61.10;33.30;;;;;;;;;;4991682;28;20153;-63
2022/03/24 04:44:49;;;;;;;54.90;30.90;;;;;;;;;;4991016;28;20129;-63
2022/03/24 04:47:15;;;;;;;59.53;33.88;;;;;;;;;;4990608;28;20082;-63
2022/03/24 04:49:41;;;;;;;59.13;34.65;;;;;;;;;;4994101;28;20046;-63
2022/03/24 04:52:08;;;;;;;60.50;33.20;;;;;;;;;;4993727;28;20046;-63
2022/03/24 04:54:34;;;;;;;61.65;33.53;;;;;;;;;;4995708;28;20459;-63
2022/03/24 04:57:00;;;;;;;59.83;33.55;;;;;;;;;;4995282;28;20074;-63
2022/03/24 04:59:27;;;;;;;60.55;34.10;;;;;;;;;;4995038;28;20061;-63
2022/03/24 05:01:53;;;;;;;59.53;32.28;;;;;;;;;;4995670;28;20042;-63
2022/03/24 05:04:21;;;;;;;61.15;34.20;;;;;;;;;;4995578;28;20077;-63
2022/03/24 05:06:47;;;;;;;59.25;33.17;;;;;;;;;;4994821;28;20816;-63
2022/03/24 05:09:14;;;;;;;59.45;33.53;;;;;;;;;;4993682;28;20401;-63
2022/03/24 05:11:40;;;;;;;58.88;32.10;;;;;;;;;;4995388;28;20455;-63
2022/03/24 05:14:06;;;;;;;60.13;32.33;;;;;;;;;;4994681;28;20073;-63
2022/03/24 05:16:32;;;;;;;55.15;32.35;;;;;;;;;;4995074;28;20042;-63
2022/03/24 05:18:58;;;;;;;61.10;33.25;;;;;;;;;;4995208;28;20038;-63
2022/03/24 05:21:25;;;;;;;57.88;33.00;;;;;;;;;;4994445;28;20081;-63
2022/03/24 05:23:51;;;;;;;58.63;32.78;;;;;;;;;;4994999;28;20125;-63
2022/03/24 05:26:20;;;;;;;51.78;31.35;;;;;;;;;;4985536;28;20504;-63
2022/03/24 05:28:47;;;;;;;56.45;33.25;;;;;;;;;;4974671;28;20528;-63
2022/03/24 05:31:13;;;;;;;63.42;35.28;;;;;;;;;;4975395;28;20729;-63
2022/03/24 05:33:39;;;;;;;63.35;33.85;;;;;;;;;;4975374;28;20039;-63
2022/03/24 05:36:05;;;;;;;61.85;34.80;;;;;;;;;;4974470;28;20038;-63
2022/03/24 05:38:31;;;;;;;61.78;34.00;;;;;;;;;;4975259;28;20043;-63
2022/03/24 05:40:57;;;;;;;57.25;32.63;;;;;;;;;;4975249;28;20662;-63
2022/03/24 05:43:24;;;;;;;57.03;31.75;;;;;;;;;;4973248;28;20425;-63
2022/03/24 05:45:50;;;;;;;62.47;33.35;;;;;;;;;;4975031;28;20355;-63
2022/03/24 05:48:16;;;;;;;62.67;33.25;;;;;;;;;;4975132;28;20062;-63
2022/03/24 05:50:43;;;;;;;67.53;33.78;;;;;;;;;;4974837;28;20403;-63
2022/03/24 05:53:09;;;;;;;59.25;32.08;;;;;;;;;;4974523;28;20066;-63
2022/03/24 05:55:37;;;;;;;67.18;34.78;;;;;;;;;;4974648;28;20512;-63
2022/03/24 05:58:04;;;;;;;68.38;37.20;;;;;;;;;;4974785;28;20058;-63
2022/03/24 06:00:31;;;;;;;61.15;35.67;;;;;;;;;;4973400;28;20043;-63
2022/03/24 06:02:57;;;;;;;70.55;36.17;;;;;;;;;;4974610;28;20066;-63
2022/03/24 06:05:25;;;;;;;71.40;36.50;;;;;;;;;;4974619;28;20125;-63
2022/03/24 06:07:51;;;;;;;71.38;38.53;;;;;;;;;;4974063;28;20382;-63
2022/03/24 06:10:17;;;;;;;69.65;35.33;;;;;;;;;;4974551;28;20039;-63
2022/03/24 06:12:46;;;;;;;67.63;34.67;;;;;;;;;;4974295;28;20381;-63
2022/03/24 06:15:13;;;;;;;66.93;34.95;;;;;;;;;;4974085;28;20052;-63
2022/03/24 06:17:39;;;;;;;70.18;34.75;;;;;;;;;;4974566;28;20375;-63
2022/03/24 06:20:09;;;;;;;65.40;32.60;;;;;;;;;;4974534;28;20472;-63
2022/03/24 06:22:42;;;;;;;67.18;34.40;;;;;;;;;;4973850;28;20507;-63
2022/03/24 06:25:08;;;;;;;63.03;33.63;;;;;;;;;;4974492;28;20064;-63
2022/03/24 06:27:34;;;;;;;65.53;35.38;;;;;;;;;;4993743;28;20522;-63
2022/03/24 06:30:03;;;;;;;74.57;38.08;;;;;;;;;;4992605;28;20116;-63
2022/03/24 06:32:30;;;;;;;70.55;37.00;;;;;;;;;;4993475;28;20053;-63
2022/03/24 06:34:56;;;;;;;72.80;39.42;;;;;;;;;;4993604;28;20570;-63
2022/03/24 06:37:22;;;;;;;74.90;39.95;;;;;;;;;;4992868;28;20038;-63
2022/03/24 06:39:48;;;;;;;77.60;41.28;;;;;;;;;;4993673;28;20113;-63
2022/03/24 06:42:14;;;;;;;73.18;42.22;;;;;;;;;;4993055;28;20051;-63
2022/03/24 06:44:40;;;;;;;74.47;41.42;;;;;;;;;;4992912;28;20627;-63
2022/03/24 06:47:06;;;;;;;79.28;42.92;;;;;;;;;;4993462;28;20531;-63
2022/03/24 06:49:33;;;;;;;83.03;45.15;;;;;;;;;;4993287;28;20444;-63
2022/03/24 06:51:59;;;;;;;80.88;44.40;;;;;;;;;;4992989;28;20042;-63
2022/03/24 06:54:25;;;;;;;80.93;45.20;;;;;;;;;;4993241;28;20073;-63
2022/03/24 06:56:51;;;;;;;80.25;46.42;;;;;;;;;;4992687;28;20057;-63
2022/03/24 06:59:17;;;;;;;80.60;45.28;;;;;;;;;;4992305;28;20034;-63
2022/03/24 07:01:43;;;;;;;83.55;45.45;;;;;;;;;;4993174;28;20046;-64
2022/03/24 07:04:09;;;;;;;78.20;44.92;;;;;;;;;;4993300;28;20437;-63
2022/03/24 07:06:35;;;;;;;84.55;45.63;;;;;;;;;;4992386;28;20092;-63
2022/03/24 07:09:01;;;;;;;82.28;45.28;;;;;;;;;;4992887;28;20049;-63
2022/03/24 07:11:27;;;;;;;83.10;46.63;;;;;;;;;;4992858;28;20046;-63
2022/03/24 07:13:53;;;;;;;81.32;45.53;;;;;;;;;;4992369;28;20066;-63
2022/03/24 07:16:19;;;;;;;81.40;46.55;;;;;;;;;;4992894;28;20065;-63
2022/03/24 07:18:46;;;;;;;81.10;44.28;;;;;;;;;;4992766;28;20039;-63
2022/03/24 07:21:12;;;;;;;80.15;44.55;;;;;;;;;;4991808;28;20096;-63
2022/03/24 07:23:38;;;;;;;77.30;44.35;;;;;;;;;;4986285;28;20049;-64
2022/03/24 07:26:05;;;;;;;85.95;46.83;;;;;;;;;;4981900;28;20090;-64
2022/03/24 07:28:31;;;;;;;83.53;46.97;;;;;;;;;;4987017;28;20082;-63
2022/03/24 07:30:57;;;;;;;81.38;47.80;;;;;;;;;;4982465;28;20034;-63
2022/03/24 07:33:23;;;;;;;83.10;47.10;;;;;;;;;;4991803;28;20111;-64
2022/03/24 07:35:49;;;;;;;76.93;44.33;;;;;;;;;;4977428;28;20050;-63
2022/03/24 07:38:16;;;;;;;76.65;44.80;;;;;;;;;;4977181;28;20046;-62
2022/03/24 07:40:42;;;;;;;78.85;44.58;;;;;;;;;;5000989;28;20041;-62
2022/03/24 07:43:09;;;;;;;75.25;43.72;;;;;;;;;;4993032;28;20066;-63
2022/03/24 07:45:38;;;;;;;73.68;44.58;;;;;;;;;;5001774;28;20103;-62
2022/03/24 07:48:04;;;;;;;74.13;43.17;;;;;;;;;;4985553;28;20046;-62
2022/03/24 07:50:30;;;;;;;77.82;43.70;;;;;;;;;;4983267;28;20047;-62
2022/03/24 07:53:04;;;;;;;74.40;43.60;;;;;;;;;;4972013;28;20081;-63
2022/03/24 07:55:30;;;;;;;77.15;41.83;;;;;;;;;;4973497;28;20396;-61
2022/03/24 07:57:56;;;;;;;77.03;42.72;;;;;;;;;;4973007;28;20487;-62
2022/03/24 08:00:22;;;;;;;72.00;41.55;;;;;;;;;;4974903;28;20125;-63
2022/03/24 08:02:52;;;;;;;67.70;38.95;;;;;;;;;;4982058;28;20093;-61
2022/03/24 08:05:18;;;;;;;71.38;38.08;;;;;;;;;;4971512;28;20050;-62
2022/03/24 08:07:44;;;;;;;67.53;39.22;;;;;;;;;;4971897;28;20512;-61
2022/03/24 08:10:10;;;;;;;67.15;38.30;;;;;;;;;;4972328;28;20571;-62
2022/03/24 08:12:37;;;;;;;66.38;39.45;;;;;;;;;;4971654;28;20457;-62
2022/03/24 08:15:03;;;;;;;62.28;37.92;;;;;;;;;;4972287;28;20127;-62
2022/03/24 08:17:29;;;;;;;59.80;35.33;;;;;;;;;;4971246;28;20043;-62
2022/03/24 08:19:55;;;;;;;63.50;36.75;;;;;;;;;;4970557;28;20090;-62
2022/03/24 08:22:21;;;;;;;59.55;35.38;;;;;;;;;;4978009;28;20043;-62
2022/03/24 08:24:48;;;;;;;55.00;34.15;;;;;;;;;;4974707;28;20116;-61
2022/03/24 08:27:14;;;;;;;67.90;36.92;;;;;;;;;;4979104;28;20071;-61
2022/03/24 08:29:40;;;;;;;61.15;35.13;;;;;;;;;;4975432;28;20042;-60
2022/03/24 08:32:07;;;;;;;52.03;31.70;;;;;;;;;;4975678;28;20110;-61
2022/03/24 08:34:33;;;;;;;57.05;32.88;;;;;;;;;;4975461;28;20039;-66
2022/03/24 08:36:59;;;;;;;64.82;35.72;;;;;;;;;;4989593;28;20488;-65
2022/03/24 08:39:25;;;;;;;64.60;35.95;;;;;;;;;;4994596;28;20038;-66
2022/03/24 08:41:53;;;;;;;62.00;35.28;;;;;;;;;;4975248;28;20412;-65
2022/03/24 08:44:19;;;;;;;67.28;38.95;;;;;;;;;;4970593;28;20050;-65
2022/03/24 08:46:45;;;;;;;64.38;35.45;;;;;;;;;;4978705;28;20066;-66
2022/03/24 08:49:11;;;;;;;66.40;35.15;;;;;;;;;;4987878;28;20034;-66
2022/03/24 08:51:38;;;;;;;62.80;35.97;;;;;;;;;;4981155;28;20035;-66
2022/03/24 08:54:05;;;;;;;61.38;33.88;;;;;;;;;;4991571;28;20038;-65
2022/03/24 08:56:31;;;;;;;62.78;36.38;;;;;;;;;;4990190;28;20057;-65
2022/03/24 08:58:58;;;;;;;61.30;34.80;;;;;;;;;;5001807;28;20185;-66
2022/03/24 09:01:24;;;;;;;57.28;33.90;;;;;;;;;;4988902;28;20054;-65
2022/03/24 09:03:51;;;;;;;61.78;35.55;;;;;;;;;;4980493;28;20419;-65
2022/03/24 09:06:18;;;;;;;60.67;34.72;;;;;;;;;;4990575;28;20405;-65
2022/03/24 09:08:44;;;;;;;58.50;32.72;;;;;;;;;;4984747;28;20046;-66
2022/03/24 09:11:10;;;;;;;57.78;33.28;;;;;;;;;;4985740;28;20705;-65
2022/03/24 09:13:37;;;;;;;51.50;29.73;;;;;;;;;;4993514;28;20050;-65
2022/03/24 09:16:03;;;;;;;50.30;28.00;;;;;;;;;;4980901;28;20140;-66
2022/03/24 09:18:29;;;;;;;50.78;28.65;;;;;;;;;;4988546;28;20457;-66
2022/03/24 09:20:55;;;;;;;51.05;29.02;;;;;;;;;;4985689;28;20054;-67
2022/03/24 09:23:24;;;;;;;48.58;28.17;;;;;;;;;;4981780;28;20697;-66
2022/03/24 09:25:50;;;;;;;49.75;28.02;;;;;;;;;;4995702;28;20053;-66
2022/03/24 09:28:16;;;;;;;53.38;28.67;;;;;;;;;;4983569;28;20476;-66
2022/03/24 09:30:42;;;;;;;50.75;29.63;;;;;;;;;;4987141;28;20045;-66
2022/03/24 09:33:09;;;;;;;47.97;29.55;;;;;;;;;;4982823;28;20093;-66
2022/03/24 09:35:36;;;;;;;52.53;29.40;;;;;;;;;;5001225;28;20034;-66
2022/03/24 09:38:02;;;;;;;55.38;30.55;;;;;;;;;;4974150;28;20116;-67
2022/03/24 09:40:28;;;;;;;53.22;30.77;;;;;;;;;;4980889;28;20042;-66
2022/03/24 09:42:55;;;;;;;55.92;30.42;;;;;;;;;;4993139;28;20393;-67
2022/03/24 09:45:22;;;;;;;55.42;30.13;;;;;;;;;;4993762;28;20571;-66
2022/03/24 09:47:49;;;;;;;50.67;31.00;;;;;;;;;;4980735;28;20042;-68
2022/03/24 09:50:16;;;;;;;53.25;31.23;;;;;;;;;;4991230;28;20049;-67
2022/03/24 09:52:42;;;;;;;59.63;32.50;;;;;;;;;;4982468;28;20046;-66
2022/03/24 09:55:09;;;;;;;55.97;31.92;;;;;;;;;;4983073;28;20043;-66
2022/03/24 09:57:35;;;;;;;55.78;31.60;;;;;;;;;;4989260;28;20038;-66
2022/03/24 10:00:02;;;;;;;50.20;30.70;;;;;;;;;;4979930;28;20053;-66
2022/03/24 10:02:29;;;;;;;54.40;31.70;;;;;;;;;;4989086;28;20043;-66
2022/03/24 10:05:00;;;;;;;54.30;33.20;;;;;;;;;;4984025;28;20050;-65
2022/03/24 10:07:31;;;;;;;53.22;31.65;;;;;;;;;;4982173;28;20046;-65
2022/03/24 10:09:58;;;;;;;49.42;30.33;;;;;;;;;;4991270;28;20046;-65
2022/03/24 10:12:25;;;;;;;55.92;32.20;;;;;;;;;;4982560;28;20066;-66
2022/03/24 10:14:58;;;;;;;62.05;31.10;;;;;;;;;;4989365;28;20452;-66
2022/03/24 10:17:24;;;;;;;53.88;29.58;;;;;;;;;;4992163;28;20576;-66
2022/03/24 10:19:59;;;;;;;54.92;30.77;;;;;;;;;;4980154;28;20042;-66
2022/03/24 10:22:26;;;;;;;48.15;27.95;;;;;;;;;;4990527;28;20086;-66
2022/03/24 10:24:52;;;;;;;44.83;26.13;;;;;;;;;;4981912;28;20061;-65
2022/03/24 10:27:22;;;;;;;55.42;28.42;;;;;;;;;;4975778;28;20433;-65
2022/03/24 10:29:54;;;;;;;54.50;28.98;;;;;;;;;;4990716;28;20070;-64
2022/03/24 10:32:20;;;;;;;51.83;29.08;;;;;;;;;;4979731;28;20046;-65
2022/03/24 10:34:48;;;;;;;50.15;29.70;;;;;;;;;;4987712;28;20034;-67
2022/03/24 10:37:25;;;;;;;47.45;26.90;;;;;;;;;;4985359;28;20038;-67
2022/03/24 10:40:06;;;;;;;43.75;26.38;;;;;;;;;;4978525;28;20054;-66
2022/03/24 10:42:33;;;;;;;47.13;25.13;;;;;;;;;;4989935;28;20536;-67
2022/03/24 10:45:05;;;;;;;43.03;26.30;;;;;;;;;;4991484;28;20505;-65
2022/03/24 10:47:39;;;;;;;49.20;27.45;;;;;;;;;;4980978;28;20121;-67
2022/03/24 10:50:20;;;;;;;48.97;27.10;;;;;;;;;;4973932;28;20049;-68
2022/03/24 10:52:47;;;;;;;48.70;26.52;;;;;;;;;;4982958;28;20034;-67
2022/03/24 10:55:17;;;;;;;41.53;25.20;;;;;;;;;;4991800;28;20042;-66
2022/03/24 10:57:44;;;;;;;43.30;24.88;;;;;;;;;;4992007;28;20046;-67
2022/03/24 11:00:11;;;;;;;44.85;23.85;;;;;;;;;;4985471;28;20134;-67
2022/03/24 11:02:37;;;;;;;40.75;22.17;;;;;;;;;;4987272;28;20114;-67
2022/03/24 11:05:12;;;;;;;40.58;23.10;;;;;;;;;;4972762;28;20051;-67
2022/03/24 11:07:38;;;;;;;40.55;23.40;;;;;;;;;;4982906;28;20042;-67
2022/03/24 11:10:13;;;;;;;38.15;22.80;;;;;;;;;;4972420;28;20154;-67
2022/03/24 11:12:39;;;;;;;40.15;24.13;;;;;;;;;;4973196;28;20113;-66
2022/03/24 11:15:07;;;;;;;44.67;23.98;;;;;;;;;;4972846;28;20121;-65
2022/03/24 11:17:34;;;;;;;45.10;23.60;;;;;;;;;;4980703;28;20050;-67
2022/03/24 11:20:16;;;;;;;41.92;22.02;;;;;;;;;;4972926;28;20053;-67
2022/03/24 11:23:00;;;;;;;43.47;21.95;;;;;;;;;;4984309;28;20046;-66
2022/03/24 11:25:27;;;;;;;45.25;22.60;;;;;;;;;;4982589;28;20046;-66
2022/03/24 11:27:57;;;;;;;37.03;21.13;;;;;;;;;;4992141;28;20050;-67
2022/03/24 11:30:23;;;;;;;46.97;22.80;;;;;;;;;;4980472;28;20363;-68
2022/03/24 11:32:52;;;;;;;44.90;21.63;;;;;;;;;;4971902;28;20039;-68
2022/03/24 11:35:19;;;;;;;45.30;20.98;;;;;;;;;;4954437;28;20050;-67
2022/03/24 11:37:45;;;;;;;37.53;20.50;;;;;;;;;;4970680;28;20053;-68
2022/03/24 11:40:17;;;;;;;42.55;20.65;;;;;;;;;;4971758;28;20043;-68
2022/03/24 11:42:45;;;;;;;33.08;19.60;;;;;;;;;;4972601;28;20078;-68
2022/03/24 11:45:18;;;;;;;36.38;19.35;;;;;;;;;;4972727;28;20046;-68
2022/03/24 11:47:50;;;;;;;35.72;19.35;;;;;;;;;;4976104;28;20409;-67
2022/03/24 11:50:17;;;;;;;;;;;;;;;;;;4972678;28;20090;-67
2022/03/24 11:52:44;;;;;;;32.58;18.52;;;;;;;;;;4973801;28;19932;-68
2022/03/24 11:55:15;;;;;;;36.38;19.40;;;;;;;;;;4980685;28;20043;-67
2022/03/24 11:57:42;;;;;;;38.90;20.80;;;;;;;;;;4971812;28;20177;-68
2022/03/24 12:00:14;;;;;;;37.70;21.00;;;;;;;;;;4971672;28;20130;-66
2022/03/24 12:02:40;;;;;;;;;;;;;;;;;;4967954;28;20070;-65
2022/03/24 12:05:06;;;;;;;33.25;17.73;;;;;;;;;;4971944;28;19981;-65
2022/03/24 12:07:32;;;;;;;28.92;17.88;;;;;;;;;;4971953;28;20047;-64
2022/03/24 12:10:00;;;;;;;33.38;17.52;;;;;;;;;;4971031;28;20043;-65
2022/03/24 12:12:28;;;;;;;30.95;16.98;;;;;;;;;;4972239;28;20113;-67
2022/03/24 12:14:54;;;;;;;32.17;18.38;;;;;;;;;;4972608;28;20051;-66
2022/03/24 12:17:22;;;;;;;27.73;17.65;;;;;;;;;;4971689;28;20858;-67
2022/03/24 12:19:50;;;;;;;33.38;17.58;;;;;;;;;;4977698;28;20042;-67
2022/03/24 12:22:22;;;;;;;31.52;17.55;;;;;;;;;;4971195;28;20047;-64
2022/03/24 12:24:48;;;;;;;28.73;17.30;;;;;;;;;;4978975;28;20045;-64
2022/03/24 12:27:16;;;;;;;29.15;17.45;;;;;;;;;;4975210;28;20071;-66
2022/03/24 12:29:42;;;;;;;31.70;17.30;;;;;;;;;;4989662;28;20042;-66
2022/03/24 12:32:10;;;;;;;32.72;17.73;;;;;;;;;;5004356;28;20074;-65
2022/03/24 12:34:46;;;;;;;33.40;16.02;;;;;;;;;;4971923;28;20054;-64
2022/03/24 12:37:29;;;;;;;24.42;15.20;;;;;;;;;;4970831;28;20182;-64
2022/03/24 12:40:08;;;;;;;21.73;12.63;;;;;;;;;;4971266;28;20066;-66
2022/03/24 12:42:45;;;;;;;26.65;12.68;;;;;;;;;;4983691;28;20058;-66
2022/03/24 12:45:17;;;;;;;22.13;14.75;;;;;;;;;;4987556;28;20054;-65
2022/03/24 12:47:44;;;;;;;23.00;14.13;;;;;;;;;;5009162;28;20077;-65
2022/03/24 12:50:17;;;;;;;27.02;14.85;;;;;;;;;;4982101;28;20784;-65
2022/03/24 12:52:50;;;;;;;26.77;15.07;;;;;;;;;;4983383;28;20421;-66
2022/03/24 12:55:32;;;;;;;22.13;13.95;;;;;;;;;;4972268;28;20034;-67
2022/03/24 12:58:03;;;;;;;24.85;13.85;;;;;;;;;;4974627;28;20074;-66
2022/03/24 13:00:31;;;;;;;25.80;14.93;;;;;;;;;;4970831;28;20042;-67
2022/03/24 13:02:58;;;;;;;24.00;15.85;;;;;;;;;;4972036;28;20587;-66
2022/03/24 13:05:25;;;;;;;31.25;15.95;;;;;;;;;;4975050;28;20109;-67
2022/03/24 13:07:52;;;;;;;25.42;15.10;;;;;;;;;;4970024;28;20047;-67
2022/03/24 13:10:19;;;;;;;26.58;16.35;;;;;;;;;;4986900;28;20042;-67
2022/03/24 13:12:46;;;;;;;27.73;16.67;;;;;;;;;;4988104;28;20077;-68
2022/03/24 13:15:18;;;;;;;25.45;16.58;;;;;;;;;;4993689;28;20583;-68
2022/03/24 13:17:44;;;;;;;;;;;;;;;;;;4983682;28;20130;-68
2022/03/24 13:20:10;;;;;;;31.02;17.65;;;;;;;;;;4974897;28;20323;-68
2022/03/24 13:22:36;;;;;;;28.83;18.45;;;;;;;;;;4991373;28;20053;-68
2022/03/24 13:25:05;;;;;;;25.38;15.93;;;;;;;;;;4985786;28;20546;-68
2022/03/24 13:27:33;;;;;;;29.83;17.02;;;;;;;;;;4994414;28;20077;-68
2022/03/24 13:30:02;;;;;;;27.90;17.23;;;;;;;;;;4977171;28;20110;-68
2022/03/24 13:32:28;;;;;;;28.35;17.23;;;;;;;;;;4974842;28;20053;-68
2022/03/24 13:34:57;;;;;;;25.05;17.52;;;;;;;;;;4973824;28;20359;-68
2022/03/24 13:37:24;;;;;;;24.02;17.25;;;;;;;;;;4974301;28;20622;-68
2022/03/24 13:39:56;;;;;;;27.38;18.17;;;;;;;;;;4974844;28;20456;-68
2022/03/24 13:42:24;;;;;;;30.17;18.35;;;;;;;;;;4992033;28;20587;-68
2022/03/24 13:44:52;;;;;;;27.48;15.43;;;;;;;;;;4986841;28;20046;-68
2022/03/24 13:47:20;;;;;;;21.73;14.98;;;;;;;;;;4974844;28;20047;-67
2022/03/24 13:49:47;;;;;;;28.05;19.35;;;;;;;;;;4987029;28;20077;-68
2022/03/24 13:52:33;;;;;;;34.17;21.50;;;;;;;;;;4990850;28;20089;-68
2022/03/24 13:55:00;;;;;;;31.42;20.05;;;;;;;;;;4983431;28;20137;-68
2022/03/24 13:57:26;;;;;;;32.00;20.95;;;;;;;;;;4982777;28;20394;-68
2022/03/24 13:59:53;;;;;;;31.35;19.95;;;;;;;;;;4973752;28;20479;-68
2022/03/24 14:02:24;;;;;;;33.80;21.02;;;;;;;;;;4974402;28;20133;-68
2022/03/24 14:05:04;;;;;;;32.63;20.02;;;;;;;;;;4974265;28;20061;-68
2022/03/24 14:07:31;;;;;;;29.88;19.35;;;;;;;;;;4973782;28;20843;-68
2022/03/24 14:09:58;;;;;;;33.78;22.00;;;;;;;;;;4973423;28;20082;-67
2022/03/24 14:12:25;;;;;;;32.08;20.42;;;;;;;;;;4973113;28;20493;-67
2022/03/24 14:14:52;;;;;;;33.03;21.00;;;;;;;;;;4973822;28;20046;-67
2022/03/24 14:17:25;;;;;;;30.08;19.33;;;;;;;;;;4974299;28;20122;-67
2022/03/24 14:19:55;;;;;;;27.80;18.65;;;;;;;;;;4972515;28;20393;-66
2022/03/24 14:22:24;;;;;;;28.42;18.58;;;;;;;;;;4994048;28;20168;-67
2022/03/24 14:24:50;;;;;;;30.23;19.77;;;;;;;;;;5000557;28;20046;-67